Time;durP1;ratioP1;P1;durP2;ratioP2;P2;SDS_P1;SDS_P2;PMS_P1;PMS_P2;Temp;Humidity;BMP_temperature;BMP_pressure;BME280_temperature;BME280_humidity;BME280_pressure;Samples;Min_cycle;Max_cycle;Signal;HPM_P1;HPM_P2
2021/04/26 00:00:25;;;;;;;4.10;0.90;;;;;;;1.81;63.80;102188.16;5091429;28;20380;-64
2021/04/26 00:02:50;;;;;;;4.18;0.68;;;;;;;1.79;64.74;102185.59;5056882;28;20161;-64
2021/04/26 00:05:16;;;;;;;1.70;0.68;;;;;;;1.75;64.15;102186.63;5073430;28;20036;-65
2021/04/26 00:07:42;;;;;;;3.90;0.75;;;;;;;1.71;64.51;102174.56;5091005;28;20114;-64
2021/04/26 00:10:08;;;;;;;1.95;0.57;;;;;;;1.64;65.42;102181.03;5056624;28;20032;-65
2021/04/26 00:12:34;;;;;;;1.60;0.50;;;;;;;1.58;65.33;102187.41;5056683;28;20119;-65
2021/04/26 00:14:59;;;;;;;4.35;0.57;;;;;;;1.54;65.87;102185.84;5091237;28;20029;-64
2021/04/26 00:17:25;;;;;;;1.80;0.93;;;;;;;1.56;65.24;102184.00;5091106;28;20081;-65
2021/04/26 00:19:50;;;;;;;3.23;0.63;;;;;;;1.51;65.26;102175.44;5090941;28;20078;-64
2021/04/26 00:22:15;;;;;;;1.73;1.00;;;;;;;1.42;65.85;102183.75;5091114;28;20116;-64
2021/04/26 00:24:41;;;;;;;1.73;0.50;;;;;;;1.42;66.06;102183.75;5091108;28;20036;-65
2021/04/26 00:27:07;;;;;;;1.58;0.80;;;;;;;1.36;65.84;102174.38;5091038;28;20412;-64
2021/04/26 00:29:32;;;;;;;3.85;0.65;;;;;;;1.29;66.26;102180.81;5073061;28;20067;-64
2021/04/26 00:31:58;;;;;;;1.80;0.83;;;;;;;1.27;66.41;102170.34;5092764;28;20036;-64
2021/04/26 00:34:23;;;;;;;3.10;0.63;;;;;;;1.20;66.74;102171.56;5095155;28;20032;-64
2021/04/26 00:36:49;;;;;;;7.97;1.10;;;;;;;1.14;67.32;102169.19;5077543;28;20043;-64
2021/04/26 00:39:14;;;;;;;3.47;0.60;;;;;;;1.15;67.57;102168.28;5094982;28;20092;-64
2021/04/26 00:41:40;;;;;;;2.00;0.80;;;;;;;1.10;67.72;102162.38;5095168;28;20460;-66
2021/04/26 00:44:05;;;;;;;2.43;0.83;;;;;;;1.00;67.48;102169.78;5077187;28;20471;-64
2021/04/26 00:46:31;;;;;;;3.92;0.95;;;;;;;0.91;67.77;102158.78;5095145;28;20032;-66
2021/04/26 00:48:56;;;;;;;5.10;0.90;;;;;;;0.88;68.04;102159.78;5094538;28;20130;-65
2021/04/26 00:51:21;;;;;;;2.73;1.30;;;;;;;0.82;68.43;102145.13;5094921;28;20032;-64
2021/04/26 00:53:47;;;;;;;4.33;1.23;;;;;;;0.78;68.39;102147.97;5076978;28;20040;-64
2021/04/26 00:56:13;;;;;;;1.95;1.45;;;;;;;0.74;68.42;102151.63;5094719;28;20060;-64
2021/04/26 00:58:38;;;;;;;5.18;1.50;;;;;;;0.70;69.43;102144.78;5076572;28;20032;-64
2021/04/26 01:01:04;;;;;;;2.95;1.30;;;;;;;0.71;68.75;102149.13;5076801;28;20115;-64
2021/04/26 01:03:29;;;;;;;3.53;1.63;;;;;;;0.69;69.61;102145.72;5060158;28;20042;-64
2021/04/26 01:05:56;;;;;;;4.13;1.95;;;;;;;0.66;69.79;102149.34;5094526;28;20046;-64
2021/04/26 01:08:22;;;;;;;2.88;1.52;;;;;;;0.62;69.78;102137.22;5094346;28;20039;-64
2021/04/26 01:11:09;;;;;;;2.88;1.67;;;;;;;0.59;70.13;102142.63;5062696;28;20350;-64
2021/04/26 01:13:53;;;;;;;2.63;1.50;;;;;;;0.54;69.97;102144.56;5094385;28;20055;-64
2021/04/26 01:16:28;;;;;;;4.97;1.48;;;;;;;0.47;70.02;102141.34;5076419;28;20464;-64
2021/04/26 01:19:17;;;;;;;3.72;1.50;;;;;;;0.45;70.35;102137.94;5094056;28;20051;-64
2021/04/26 01:22:06;;;;;;;7.18;1.70;;;;;;;0.45;69.72;102134.47;5076409;28;20476;-64
2021/04/26 01:24:51;;;;;;;10.70;2.00;;;;;;;0.45;70.57;102134.47;5076294;28;20127;-65
2021/04/26 01:27:50;;;;;;;4.30;2.03;;;;;;;0.38;70.15;102137.31;5059666;28;20063;-65
2021/04/26 01:30:21;;;;;;;4.35;1.65;;;;;;;0.28;70.86;102128.13;5076329;28;20036;-64
2021/04/26 01:33:17;;;;;;;5.55;2.05;;;;;;;0.23;71.07;102126.56;5094188;28;20510;-64
2021/04/26 01:35:49;;;;;;;5.60;1.70;;;;;;;0.21;71.82;102126.63;5076304;28;20028;-65
2021/04/26 01:38:25;;;;;;;8.88;3.25;;;;;;;0.15;71.54;102126.91;5076004;28;20082;-64
2021/04/26 01:40:53;;;;;;;5.30;2.70;;;;;;;0.10;71.35;102128.84;5075984;28;20064;-65
2021/04/26 01:43:22;;;;;;;3.25;1.65;;;;;;;0.11;72.13;102120.03;5058864;28;20032;-64
2021/04/26 01:45:50;;;;;;;13.80;2.97;;;;;;;0.09;71.46;102116.63;5093839;28;20028;-64
2021/04/26 01:48:15;;;;;;;5.35;2.10;;;;;;;0.08;71.25;102115.78;5073035;28;20825;-64
2021/04/26 01:50:44;;;;;;;10.45;1.80;;;;;;;0.05;71.84;102121.16;5075916;28;20073;-64
2021/04/26 01:53:10;;;;;;;3.92;2.28;;;;;;;0.01;72.18;102111.69;5076044;28;20028;-64
2021/04/26 01:55:37;;;;;;;5.30;2.10;;;;;;;-0.03;72.04;102118.81;5075898;28;20039;-64
2021/04/26 01:58:04;;;;;;;6.57;1.70;;;;;;;-0.10;71.83;102108.63;5075464;28;20137;-64
2021/04/26 02:00:36;;;;;;;3.28;1.73;;;;;;;-0.17;71.87;102110.63;5076791;28;20032;-64
2021/04/26 02:03:08;;;;;;;5.40;1.45;;;;;;;-0.20;72.56;102102.88;5075742;28;20024;-64
2021/04/26 02:05:43;;;;;;;4.80;1.58;;;;;;;-0.18;72.27;102097.59;5060325;28;20031;-65
2021/04/26 02:08:12;;;;;;;2.47;1.60;;;;;;;-0.22;71.80;102104.72;5075144;28;20051;-65
2021/04/26 02:10:40;;;;;;;4.70;1.80;;;;;;;-0.30;71.79;102104.16;5075314;28;20040;-65
2021/04/26 02:13:07;;;;;;;4.88;1.95;;;;;;;-0.31;72.20;102097.19;5058876;28;20418;-64
2021/04/26 02:15:36;;;;;;;2.90;1.40;;;;;;;-0.32;72.14;102091.09;5093318;28;20052;-64
2021/04/26 02:18:02;;;;;;;2.38;1.65;;;;;;;-0.32;72.69;102098.97;5058524;28;20032;-64
2021/04/26 02:20:28;;;;;;;4.40;1.83;;;;;;;-0.37;72.82;102089.56;5092971;28;20030;-64
2021/04/26 02:22:53;;;;;;;2.55;1.52;;;;;;;-0.43;73.43;102093.28;5092954;28;20416;-64
2021/04/26 02:25:20;;;;;;;5.18;1.40;;;;;;;-0.44;73.49;102087.16;5075219;28;20036;-64
2021/04/26 02:27:47;;;;;;;2.33;1.40;;;;;;;-0.47;73.60;102081.16;5058328;28;20032;-64
2021/04/26 02:30:14;;;;;;;6.20;1.60;;;;;;;-0.48;73.70;102074.22;5058635;28;20468;-64
2021/04/26 02:33:08;;;;;;;6.97;1.63;;;;;;;-0.51;73.70;102084.84;5075217;28;20416;-64
2021/04/26 02:36:02;;;;;;;3.75;1.48;;;;;;;-0.55;73.52;102084.09;5093153;28;20035;-64
2021/04/26 02:38:34;;;;;;;2.45;1.45;;;;;;;-0.51;73.14;102084.84;5075048;28;20038;-64
2021/04/26 02:41:08;;;;;;;3.75;1.23;;;;;;;-0.50;73.36;102087.41;5074913;28;20031;-64
2021/04/26 02:43:42;;;;;;;7.70;1.60;;;;;;;-0.52;73.69;102077.88;5074974;28;20036;-64
2021/04/26 02:46:08;;;;;;;5.57;2.67;;;;;;;-0.55;74.08;102078.00;5092745;28;20032;-64
2021/04/26 02:48:37;;;;;;;4.22;1.52;;;;;;;-0.60;73.94;102070.31;5058095;28;20052;-64
2021/04/26 02:51:05;;;;;;;7.88;2.40;;;;;;;-0.64;73.56;102077.41;5074658;28;20112;-64
2021/04/26 02:53:33;;;;;;;5.25;2.42;;;;;;;-0.67;73.53;102069.69;5074325;28;20036;-64
2021/04/26 02:56:09;;;;;;;6.97;1.98;;;;;;;-0.71;73.06;102064.59;5074081;28;20039;-64
2021/04/26 02:58:39;;;;;;;4.60;2.00;;;;;;;-0.73;73.93;102069.03;5074331;28;20479;-64
2021/04/26 03:01:14;;;;;;;3.40;2.00;;;;;;;-0.74;74.36;102075.22;5074652;28;20052;-64
2021/04/26 03:03:54;;;;;;;4.50;2.35;;;;;;;-0.80;74.03;102067.56;5074499;28;20551;-64
2021/04/26 03:06:21;;;;;;;5.40;1.98;;;;;;;-0.79;75.15;102066.66;5074230;28;20057;-64
2021/04/26 03:09:03;;;;;;;6.07;2.83;;;;;;;-0.83;75.38;102062.44;5074110;28;20032;-64
2021/04/26 03:11:29;;;;;;;7.03;3.28;;;;;;;-0.88;75.03;102073.09;5074348;28;20054;-64
2021/04/26 03:13:55;;;;;;;6.78;2.88;;;;;;;-0.92;74.33;102068.88;5074211;28;20036;-64
2021/04/26 03:16:21;;;;;;;6.75;2.95;;;;;;;-0.91;75.32;102062.75;5074404;28;20051;-64
2021/04/26 03:18:47;;;;;;;4.47;2.05;;;;;;;-0.94;74.46;102061.06;5073826;28;20043;-64
2021/04/26 03:21:14;;;;;;;5.70;2.75;;;;;;;-0.97;74.56;102063.81;5091818;28;20061;-64
2021/04/26 03:23:45;;;;;;;7.78;2.20;;;;;;;-0.99;75.62;102056.91;5058215;28;20105;-64
2021/04/26 03:26:12;;;;;;;3.90;1.77;;;;;;;-0.99;75.87;102056.91;5074106;28;20081;-64
2021/04/26 03:28:42;;;;;;;1.95;1.50;;;;;;;-1.02;75.24;102057.88;5073749;28;20035;-64
2021/04/26 03:31:09;;;;;;;4.18;1.88;;;;;;;-0.99;74.88;102052.50;5073977;28;20027;-63
2021/04/26 03:33:44;;;;;;;15.00;3.55;;;;;;;-0.97;76.29;102052.47;5074122;28;20048;-64
2021/04/26 03:36:10;;;;;;;9.95;2.13;;;;;;;-1.01;76.08;102056.94;5073816;28;20457;-64
2021/04/26 03:38:36;;;;;;;3.22;1.75;;;;;;;-1.07;75.30;102057.19;5073617;28;20547;-64
2021/04/26 03:41:03;;;;;;;3.97;1.50;;;;;;;-1.13;75.44;102060.88;5057271;28;20500;-64
2021/04/26 03:43:31;;;;;;;6.82;2.17;;;;;;;-1.15;75.99;102059.22;5073762;28;20036;-64
2021/04/26 03:46:07;;;;;;;4.40;2.08;;;;;;;-1.16;75.70;102047.03;5073723;28;20036;-63
2021/04/26 03:49:10;;;;;;;4.63;1.80;;;;;;;-1.15;75.29;102057.47;5009351;28;20050;-64
2021/04/26 03:52:06;;;;;;;4.20;1.70;;;;;;;-1.13;75.27;102058.25;5009240;28;20130;-64
2021/04/26 03:55:09;;;;;;;5.38;1.42;;;;;;;-1.09;75.11;102048.53;5043346;28;20418;-64
2021/04/26 03:57:35;;;;;;;7.30;1.45;;;;;;;-1.04;74.78;102054.44;5073104;28;20024;-65
2021/04/26 04:00:00;;;;;;;4.83;1.77;;;;;;;-1.03;74.55;102052.69;5091407;28;20484;-64
2021/04/26 04:02:27;;;;;;;3.22;1.63;;;;;;;-1.00;75.19;102045.56;5073536;28;20032;-64
2021/04/26 04:04:57;;;;;;;3.47;1.50;;;;;;;-0.94;75.14;102044.47;5072698;28;20741;-64
2021/04/26 04:07:35;;;;;;;7.13;2.33;;;;;;;-0.98;74.70;102043.75;5057830;28;20074;-64
2021/04/26 04:10:19;;;;;;;3.50;1.88;;;;;;;-0.95;75.18;102045.41;5091113;28;20066;-64
2021/04/26 04:13:17;;;;;;;5.85;1.80;;;;;;;-0.85;76.15;102049.38;5091049;28;20105;-64
2021/04/26 04:15:44;;;;;;;7.30;2.72;;;;;;;-0.79;75.79;102045.69;5073489;28;20333;-64
2021/04/26 04:18:14;;;;;;;9.95;2.95;;;;;;;-0.74;75.44;102051.63;5057213;28;20077;-64
2021/04/26 04:20:39;;;;;;;8.40;3.60;;;;;;;-0.69;75.22;102041.81;5056439;28;20124;-64
2021/04/26 04:23:05;;;;;;;7.68;3.33;;;;;;;-0.64;75.04;102037.22;5073175;28;20174;-64
2021/04/26 04:25:31;;;;;;;5.75;2.30;;;;;;;-0.56;75.00;102029.94;5073195;28;20478;-64
2021/04/26 04:27:58;;;;;;;6.85;2.25;;;;;;;-0.50;74.64;102034.91;5072856;28;20042;-64
2021/04/26 04:30:24;;;;;;;2.92;1.58;;;;;;;-0.42;74.77;102021.53;5073338;28;20036;-64
2021/04/26 04:33:08;;;;;;;4.18;1.77;;;;;;;-0.32;74.42;102033.34;5090997;28;20073;-64
2021/04/26 04:35:57;;;;;;;5.82;1.58;;;;;;;-0.20;74.51;102032.00;5049652;28;20488;-64
2021/04/26 04:38:58;;;;;;;2.67;1.60;;;;;;;-0.09;74.18;102024.56;5077981;28;20039;-64
2021/04/26 04:41:46;;;;;;;3.35;1.33;;;;;;;0.00;74.04;102028.59;5090418;28;20111;-64
2021/04/26 04:44:12;;;;;;;4.67;1.97;;;;;;;0.10;74.04;102026.44;5072960;28;20413;-64
2021/04/26 04:46:37;;;;;;;7.70;1.15;;;;;;;0.17;73.52;102026.09;5073223;28;20436;-64
2021/04/26 04:49:15;;;;;;;3.83;1.95;;;;;;;0.25;74.33;102023.16;5072815;28;20051;-64
2021/04/26 04:51:43;;;;;;;3.63;1.53;;;;;;;0.37;74.10;102017.38;5056266;28;20036;-64
2021/04/26 04:54:10;;;;;;;5.50;1.80;;;;;;;0.53;73.85;102021.97;5073009;28;20036;-64
2021/04/26 04:56:53;;;;;;;5.60;1.80;;;;;;;0.65;73.44;102028.47;5072795;28;20039;-64
2021/04/26 04:59:20;;;;;;;9.60;1.85;;;;;;;0.74;72.75;102033.31;5090438;28;20042;-64
2021/04/26 05:01:51;;;;;;;3.10;1.23;;;;;;;0.90;72.83;102028.25;5073155;28;20035;-63
2021/04/26 05:04:35;;;;;;;5.32;1.60;;;;;;;1.07;73.18;102028.31;5075677;28;20388;-64
2021/04/26 05:07:19;;;;;;;5.65;1.42;;;;;;;1.30;74.24;102036.94;5090665;28;20181;-64
2021/04/26 05:10:04;;;;;;;5.82;1.48;;;;;;;1.42;73.78;102029.31;5075407;28;20587;-64
2021/04/26 05:12:47;;;;;;;7.35;1.63;;;;;;;1.58;74.00;102039.16;5090626;28;20115;-64
2021/04/26 05:15:48;;;;;;;5.15;2.53;;;;;;;1.94;72.86;102031.22;5065368;28;20139;-64
2021/04/26 05:18:14;;;;;;;5.53;2.10;;;;;;;1.95;72.34;102026.84;5092100;28;20516;-64
2021/04/26 05:20:41;;;;;;;4.55;1.90;;;;;;;1.98;71.65;102030.16;5094236;28;20557;-64
2021/04/26 05:23:08;;;;;;;9.77;4.40;;;;;;;1.89;73.04;102027.97;5076504;28;20036;-65
2021/04/26 05:25:34;;;;;;;4.10;1.90;;;;;;;1.97;72.28;102025.00;5076427;28;20032;-65
2021/04/26 05:27:59;;;;;;;6.57;1.67;;;;;;;1.96;72.45;102021.47;5075827;28;20028;-64
2021/04/26 05:30:25;;;;;;;3.97;1.70;;;;;;;1.96;73.76;102029.38;5076302;28;20781;-64
2021/04/26 05:32:51;;;;;;;;;;;;;;;2.20;73.57;102026.47;5076809;28;20066;-64
2021/04/26 05:35:36;;;;;;;4.63;2.35;;;;;;;2.66;72.94;102032.03;5093897;28;19922;-64
2021/04/26 05:38:11;;;;;;;6.22;2.20;;;;;;;2.82;72.22;102032.06;5059094;28;20032;-64
2021/04/26 05:40:37;;;;;;;4.10;2.10;;;;;;;2.94;71.57;102021.72;5075706;28;20028;-64
2021/04/26 05:43:04;;;;;;;9.52;2.25;;;;;;;2.77;72.36;102016.50;5059619;28;20549;-64
2021/04/26 05:45:30;;;;;;;6.00;2.75;;;;;;;2.79;72.79;102025.19;5075808;28;20036;-64
2021/04/26 05:48:11;;;;;;;3.85;1.90;;;;;;;3.22;71.55;102022.03;5093688;28;20571;-64
2021/04/26 05:50:37;;;;;;;7.75;2.33;;;;;;;3.91;71.08;102015.50;5093803;28;20055;-64
2021/04/26 05:53:03;;;;;;;4.57;2.00;;;;;;;5.10;64.41;102012.75;5105647;28;20027;-64
2021/04/26 05:55:28;;;;;;;6.68;1.88;;;;;;;5.22;61.46;102011.13;5086785;28;20436;-65
2021/04/26 05:57:53;;;;;;;2.77;1.20;;;;;;;5.30;59.08;102016.81;5092904;28;20031;-65
2021/04/26 06:00:19;;;;;;;3.33;1.50;;;;;;;5.25;59.71;102016.25;5093185;28;20036;-64
2021/04/26 06:02:45;;;;;;;6.53;1.55;;;;;;;5.47;56.81;102013.94;5075497;28;20384;-65
2021/04/26 06:05:11;;;;;;;3.58;1.60;;;;;;;5.25;57.74;102021.56;5075632;28;20135;-64
2021/04/26 06:07:36;;;;;;;3.80;1.17;;;;;;;5.29;55.90;102020.41;5075354;28;20126;-64
2021/04/26 06:10:03;;;;;;;2.97;0.80;;;;;;;6.33;53.07;102020.72;5093422;28;20066;-64
2021/04/26 06:12:29;;;;;;;1.40;0.93;;;;;;;7.86;49.25;102018.78;5075217;28;20046;-64
2021/04/26 06:14:54;;;;;;;2.00;1.00;;;;;;;7.70;45.52;102014.63;5074037;28;20040;-65
2021/04/26 06:17:19;;;;;;;3.93;0.90;;;;;;;7.29;46.76;102013.13;5073676;28;20105;-64
2021/04/26 06:19:45;;;;;;;3.83;1.20;;;;;;;6.41;48.85;102017.53;5073490;28;20032;-64
2021/04/26 06:22:10;;;;;;;2.40;1.00;;;;;;;6.65;48.99;102018.53;5056722;28;20070;-64
2021/04/26 06:24:35;;;;;;;5.77;0.80;;;;;;;7.00;48.30;102015.22;5073788;28;20032;-65
2021/04/26 06:27:01;;;;;;;4.17;1.20;;;;;;;8.36;45.11;102016.81;5091513;28;20444;-64
2021/04/26 06:29:26;;;;;;;1.57;1.00;;;;;;;9.28;42.10;102015.81;5074242;28;20500;-65
2021/04/26 06:31:51;;;;;;;4.13;0.60;;;;;;;8.61;42.67;102016.63;5075194;28;20036;-64
2021/04/26 06:34:17;;;;;;;2.70;0.63;;;;;;;8.74;41.54;102005.88;5092947;28;20353;-64
2021/04/26 06:36:42;;;;;;;3.57;0.70;;;;;;;7.64;43.61;102001.75;5075050;28;20385;-65
2021/04/26 06:39:09;;;;;;;3.83;1.20;;;;;;;7.42;43.83;102001.63;5058129;28;20067;-65
2021/04/26 06:41:35;;;;;;;2.55;0.60;;;;;;;6.72;44.87;102009.19;5092976;28;20040;-65
2021/04/26 06:44:00;;;;;;;3.37;0.57;;;;;;;6.66;42.96;102001.63;5092651;28;20055;-65
2021/04/26 06:46:26;;;;;;;5.03;0.80;;;;;;;6.51;43.26;102003.56;5092802;28;20092;-65
2021/04/26 06:48:51;;;;;;;2.38;0.50;;;;;;;7.30;42.62;102008.66;5074459;28;20500;-65
2021/04/26 06:51:16;;;;;;;5.43;1.07;;;;;;;7.36;42.53;102010.91;5092570;28;20046;-66
2021/04/26 06:53:42;;;;;;;1.37;0.80;;;;;;;7.35;47.28;102010.06;5092697;28;20067;-65
2021/04/26 06:56:07;;;;;;;1.30;1.20;;;;;;;7.46;47.42;102011.91;5074850;28;20032;-65
2021/04/26 06:58:32;;;;;;;2.77;0.97;;;;;;;7.41;49.18;102011.41;5092285;28;20122;-65
2021/04/26 07:00:58;;;;;;;1.37;0.70;;;;;;;7.76;48.37;102006.16;5074276;28;20115;-65
2021/04/26 07:03:23;;;;;;;3.90;0.77;;;;;;;7.95;46.55;102005.66;5092359;28;20518;-65
2021/04/26 07:05:48;;;;;;;3.67;1.03;;;;;;;8.17;45.62;102006.69;5091753;28;20367;-65
2021/04/26 07:08:14;;;;;;;3.00;0.60;;;;;;;8.39;45.26;102011.25;5091596;28;20542;-66
2021/04/26 07:10:39;;;;;;;5.27;1.17;;;;;;;8.52;44.04;102004.06;5091803;28;20078;-66
2021/04/26 07:13:05;;;;;;;2.17;0.60;;;;;;;9.15;43.03;101998.25;5091719;28;20032;-65
2021/04/26 07:15:31;;;;;;;3.03;0.75;;;;;;;9.55;42.40;101995.03;5091774;28;20452;-65
2021/04/26 07:17:56;;;;;;;3.57;1.03;;;;;;;9.79;39.76;101989.53;5073878;28;20437;-65
2021/04/26 07:20:21;;;;;;;4.00;1.30;;;;;;;9.98;38.89;101997.69;5092045;28;20576;-66
2021/04/26 07:22:47;;;;;;;1.23;0.70;;;;;;;10.52;38.15;101986.00;5056994;28;20031;-66
2021/04/26 07:25:13;;;;;;;6.10;1.65;;;;;;;10.27;37.34;101986.38;5057330;28;20036;-65
2021/04/26 07:27:40;;;;;;;1.90;0.80;;;;;;;9.68;37.95;101985.06;5073659;28;20055;-65
2021/04/26 07:30:07;;;;;;;4.00;0.57;;;;;;;9.62;37.75;101986.41;5091887;28;20036;-65
2021/04/26 07:32:32;;;;;;;1.52;0.60;;;;;;;9.85;37.18;101986.31;5091784;28;20414;-65
2021/04/26 07:34:57;;;;;;;1.57;0.93;;;;;;;9.26;38.09;101980.44;5091799;28;20028;-65
2021/04/26 07:37:25;;;;;;;6.07;1.97;;;;;;;9.70;38.66;101983.97;5091744;28;20067;-65
2021/04/26 07:39:51;;;;;;;2.38;0.60;;;;;;;9.92;37.17;101985.66;5091307;28;20040;-65
2021/04/26 07:42:16;;;;;;;1.48;0.30;;;;;;;9.64;37.22;101988.94;5091609;28;20034;-65
2021/04/26 07:44:41;;;;;;;2.37;0.57;;;;;;;8.32;39.80;101994.06;5091284;28;20469;-65
2021/04/26 07:47:08;;;;;;;3.60;0.80;;;;;;;7.89;40.76;101991.94;5091652;28;20089;-65
2021/04/26 07:49:34;;;;;;;5.80;0.80;;;;;;;7.48;41.25;101988.75;5073413;28;20467;-65
2021/04/26 07:51:59;;;;;;;0.93;0.80;;;;;;;7.88;40.39;101987.63;5073990;28;20127;-64
2021/04/26 07:54:25;;;;;;;1.90;0.97;;;;;;;8.56;39.39;101992.19;5091677;28;20032;-64
2021/04/26 07:56:50;;;;;;;1.13;0.83;;;;;;;8.97;38.39;101979.28;5091505;28;20039;-65
2021/04/26 07:59:16;;;;;;;2.07;0.70;;;;;;;9.06;39.15;101975.84;5091312;28;20042;-65
2021/04/26 08:01:41;;;;;;;2.93;0.93;;;;;;;9.28;41.46;101972.31;5091543;28;20047;-65
2021/04/26 08:04:06;;;;;;;3.07;0.50;;;;;;;9.93;37.40;101973.22;5091382;28;20043;-65
2021/04/26 08:06:32;;;;;;;7.03;2.00;;;;;;;9.85;35.83;101971.16;5091401;28;20077;-65
2021/04/26 08:08:57;;;;;;;2.97;0.60;;;;;;;10.26;36.11;101958.00;5091080;28;20090;-65
2021/04/26 08:11:23;;;;;;;8.27;1.10;;;;;;;10.62;35.15;101969.19;5091231;28;20600;-65
2021/04/26 08:13:48;;;;;;;1.07;0.60;;;;;;;10.31;34.95;101967.31;5073432;28;20282;-65
2021/04/26 08:16:14;;;;;;;4.33;0.80;;;;;;;10.87;35.00;101962.56;5073383;28;20043;-65
2021/04/26 08:18:39;;;;;;;2.20;1.10;;;;;;;11.38;32.74;101954.38;5090485;28;20048;-65
2021/04/26 08:21:05;;;;;;;3.77;0.70;;;;;;;11.21;33.46;101949.69;5090042;28;20083;-65
2021/04/26 08:23:30;;;;;;;1.55;0.50;;;;;;;9.50;35.61;101960.75;5089385;28;20072;-65
2021/04/26 08:25:56;;;;;;;4.43;0.80;;;;;;;10.34;34.87;101947.53;5089417;28;20029;-65
2021/04/26 08:28:21;;;;;;;2.40;0.60;;;;;;;10.69;34.33;101951.63;5089313;28;20062;-65
2021/04/26 08:30:48;;;;;;;5.07;0.90;;;;;;;9.88;34.44;101954.03;5071697;28;20035;-65
2021/04/26 08:33:13;;;;;;;2.42;1.17;;;;;;;9.28;36.26;101951.84;5054965;28;20028;-65
2021/04/26 08:35:39;;;;;;;3.07;0.50;;;;;;;10.37;34.27;101944.56;5072419;28;20040;-65
2021/04/26 08:38:04;;;;;;;2.07;0.90;;;;;;;10.49;35.81;101946.22;5090940;28;20039;-65
2021/04/26 08:40:29;;;;;;;2.10;1.23;;;;;;;11.43;33.37;101953.13;5073321;28;20503;-65
2021/04/26 08:43:00;;;;;;;1.10;0.50;;;;;;;12.36;32.23;101951.69;5091037;28;20032;-65
2021/04/26 08:45:25;;;;;;;2.78;1.05;;;;;;;11.02;34.52;101952.31;5090635;28;20050;-65
2021/04/26 08:47:52;;;;;;;1.63;0.60;;;;;;;11.91;33.78;101953.16;5090558;28;20044;-65
2021/04/26 08:50:17;;;;;;;6.55;1.45;;;;;;;12.56;31.00;101953.31;5073216;28;20467;-65
2021/04/26 08:52:43;;;;;;;1.80;0.40;;;;;;;12.72;33.18;101949.19;5074102;28;20044;-65
2021/04/26 08:55:11;;;;;;;1.87;1.60;;;;;;;11.27;33.51;101948.31;5077091;28;20024;-65
2021/04/26 08:57:37;;;;;;;2.13;0.90;;;;;;;11.84;33.75;101950.16;5059756;28;20028;-65
2021/04/26 09:00:05;;;;;;;2.00;0.40;;;;;;;12.25;33.36;101955.38;5077175;28;20082;-65
2021/04/26 09:02:42;;;;;;;4.68;1.63;;;;;;;11.47;30.88;101943.81;5076773;28;20437;-65
2021/04/26 09:05:08;;;;;;;2.00;0.60;;;;;;;11.18;32.67;101949.97;5076893;28;20028;-65
2021/04/26 09:07:33;;;;;;;2.70;0.80;;;;;;;9.92;33.64;101943.00;5094453;28;20032;-65
2021/04/26 09:09:59;;;;;;;2.83;1.47;;;;;;;11.10;33.07;101941.81;5094702;28;20064;-65
2021/04/26 09:12:29;;;;;;;4.67;0.70;;;;;;;11.99;32.39;101939.09;5094548;28;20043;-65
2021/04/26 09:14:56;;;;;;;1.25;0.40;;;;;;;11.93;31.37;101939.66;5076614;28;20024;-65
2021/04/26 09:17:34;;;;;;;3.00;0.95;;;;;;;10.33;32.66;101929.81;5076473;28;20040;-65
2021/04/26 09:20:14;;;;;;;2.90;0.90;;;;;;;11.66;32.66;101926.94;5076664;28;20492;-65
2021/04/26 09:22:50;;;;;;;6.47;1.17;;;;;;;11.96;30.11;101931.31;5094084;28;20039;-65
2021/04/26 09:25:23;;;;;;;0.47;0.40;;;;;;;12.74;30.08;101929.28;5094315;28;20361;-65
2021/04/26 09:27:54;;;;;;;0.50;0.40;;;;;;;13.25;28.38;101927.91;5093790;28;20066;-65
2021/04/26 09:30:41;;;;;;;1.38;0.60;;;;;;;13.58;31.68;101924.69;5094286;28;20039;-65
2021/04/26 09:33:30;;;;;;;1.05;0.60;;;;;;;14.75;29.09;101927.06;5094258;28;20073;-65
2021/04/26 09:36:01;;;;;;;1.25;0.30;;;;;;;14.44;29.16;101922.16;5059636;28;20180;-65
2021/04/26 09:38:35;;;;;;;0.35;0.30;;;;;;;13.37;27.27;101931.22;5085527;28;20513;-66
2021/04/26 09:41:21;;;;;;;0.80;0.60;;;;;;;11.61;28.82;101930.91;5094259;28;20043;-65
2021/04/26 09:43:49;;;;;;;6.35;0.77;;;;;;;10.09;31.36;101922.91;5076263;28;20067;-65
2021/04/26 09:46:16;;;;;;;1.30;0.40;;;;;;;9.53;32.47;101920.53;5059614;28;20036;-65
2021/04/26 09:48:42;;;;;;;0.55;0.52;;;;;;;9.39;31.49;101923.44;5093604;28;20072;-65
2021/04/26 09:51:10;;;;;;;1.27;0.45;;;;;;;9.42;31.30;101921.41;5076148;28;20024;-65
2021/04/26 09:53:38;;;;;;;2.05;0.57;;;;;;;9.83;31.22;101913.59;5059067;28;20039;-64
2021/04/26 09:56:15;;;;;;;2.00;0.75;;;;;;;9.75;29.82;101910.72;5059426;28;20112;-65
2021/04/26 09:58:42;;;;;;;0.65;0.45;;;;;;;9.96;31.73;101908.91;5093299;28;20108;-65
2021/04/26 10:01:08;;;;;;;2.85;0.90;;;;;;;9.52;29.88;101916.16;5093738;28;20032;-65
2021/04/26 10:03:34;;;;;;;4.47;0.80;;;;;;;9.96;30.30;101906.25;5093299;28;20040;-65
2021/04/26 10:06:00;;;;;;;0.82;0.40;;;;;;;10.00;29.22;101905.00;5093626;28;20083;-65
2021/04/26 10:08:26;;;;;;;1.02;0.85;;;;;;;11.14;28.75;101901.31;5075397;28;20048;-65
2021/04/26 10:10:51;;;;;;;2.40;0.50;;;;;;;11.45;28.98;101895.84;5075179;28;20415;-65
2021/04/26 10:13:21;;;;;;;2.53;1.53;;;;;;;12.28;28.27;101906.06;5075298;28;20028;-65
2021/04/26 10:15:47;;;;;;;1.10;0.52;;;;;;;12.96;26.77;101895.88;5075632;28;20061;-66
2021/04/26 10:18:14;;;;;;;1.75;0.50;;;;;;;12.56;27.74;101893.56;5075421;28;20599;-65
2021/04/26 10:20:43;;;;;;;1.65;0.60;;;;;;;12.25;29.25;101902.69;5075493;28;20086;-65
2021/04/26 10:23:36;;;;;;;2.25;0.60;;;;;;;10.06;30.49;101893.81;5075579;28;20115;-65
2021/04/26 10:26:02;;;;;;;1.60;1.15;;;;;;;10.93;30.25;101895.19;5091843;28;20050;-64
2021/04/26 10:28:37;;;;;;;2.00;1.70;;;;;;;12.65;29.43;101892.66;5074834;28;20096;-65
2021/04/26 10:31:15;;;;;;;1.70;1.20;;;;;;;11.93;28.18;101896.84;5075115;28;20040;-65
2021/04/26 10:33:56;;;;;;;1.40;0.57;;;;;;;10.87;28.73;101898.44;5075170;28;20036;-65
2021/04/26 10:36:40;;;;;;;8.60;1.25;;;;;;;10.78;29.82;101889.41;5075036;28;20369;-65
2021/04/26 10:39:08;;;;;;;0.80;0.50;;;;;;;10.73;31.16;101878.28;5092719;28;20173;-65
2021/04/26 10:41:45;;;;;;;2.22;0.80;;;;;;;9.26;32.53;101884.50;5074796;28;20097;-65
2021/04/26 10:44:11;;;;;;;0.43;0.40;;;;;;;9.90;31.33;101877.41;5074482;28;20035;-65
2021/04/26 10:46:37;;;;;;;1.15;0.55;;;;;;;10.18;30.37;101880.38;5074464;28;20555;-65
2021/04/26 10:49:08;;;;;;;3.67;0.77;;;;;;;10.32;30.55;101875.59;5074485;28;20064;-64
2021/04/26 10:51:38;;;;;;;3.38;0.60;;;;;;;10.61;30.78;101874.03;5074581;28;20494;-64
2021/04/26 10:54:05;;;;;;;1.55;0.82;;;;;;;10.08;32.07;101870.50;5074627;28;20047;-64
2021/04/26 10:56:33;;;;;;;1.70;0.80;;;;;;;9.48;32.24;101877.38;5074497;28;20055;-65
2021/04/26 10:59:16;;;;;;;2.58;0.88;;;;;;;9.73;32.22;101870.84;5092030;28;20444;-64
2021/04/26 11:01:47;;;;;;;0.95;0.57;;;;;;;8.37;33.09;101875.63;5092446;28;20028;-64
2021/04/26 11:04:12;;;;;;;1.58;1.05;;;;;;;9.77;30.60;101861.63;5074439;28;20040;-64
2021/04/26 11:06:38;;;;;;;1.13;0.60;;;;;;;9.86;30.36;101860.00;5092445;28;20032;-64
2021/04/26 11:09:13;;;;;;;3.17;1.33;;;;;;;9.77;30.14;101866.09;5091954;28;20181;-65
2021/04/26 11:11:46;;;;;;;4.30;1.00;;;;;;;9.78;30.70;101863.28;5073984;28;20031;-65
2021/04/26 11:14:21;;;;;;;0.52;0.50;;;;;;;10.00;30.49;101850.81;5074242;28;20051;-65
2021/04/26 11:17:05;;;;;;;4.63;1.50;;;;;;;9.90;30.82;101859.59;5091214;28;20047;-65
2021/04/26 11:19:33;;;;;;;1.20;0.60;;;;;;;9.28;30.88;101860.38;5091692;28;20044;-65
2021/04/26 11:21:59;;;;;;;1.88;0.70;;;;;;;9.35;30.95;101860.72;5092055;28;20027;-65
2021/04/26 11:24:24;;;;;;;1.17;0.52;;;;;;;9.15;31.09;101852.53;5074088;28;20384;-65
2021/04/26 11:27:08;;;;;;;0.93;0.70;;;;;;;9.62;30.44;101847.78;5074094;28;20056;-65
2021/04/26 11:29:35;;;;;;;1.83;0.68;;;;;;;9.61;31.59;101846.06;5091839;28;20040;-65
2021/04/26 11:32:05;;;;;;;1.90;0.90;;;;;;;11.35;30.35;101836.16;5073921;28;20044;-65
2021/04/26 11:34:49;;;;;;;1.20;0.80;;;;;;;13.04;27.70;101828.97;5074269;28;20035;-65
2021/04/26 11:37:15;;;;;;;1.50;0.65;;;;;;;14.06;26.70;101821.41;5057368;28;20054;-66
2021/04/26 11:39:41;;;;;;;1.60;0.90;;;;;;;14.54;23.79;101830.75;5073219;28;20036;-66
2021/04/26 11:42:08;;;;;;;3.70;0.93;;;;;;;13.22;25.30;101830.81;5073697;28;20377;-66